createdAt,value
2022-12-23T00:00:28.634Z,98324.78
2022-12-23T00:02:55.480Z,98326.41
2022-12-23T00:05:22.660Z,98336.47
2022-12-23T00:07:49.291Z,98308.66
2022-12-23T00:10:15.967Z,98319.63
2022-12-23T00:13:01.464Z,98328.75
2022-12-23T00:15:28.139Z,98317.84
2022-12-23T00:17:54.764Z,98308.97
2022-12-23T00:20:21.535Z,98318.81
2022-12-23T00:23:06.062Z,98330.44
2022-12-23T00:25:40.960Z,98307.41
2022-12-23T00:28:10.201Z,98324.47
2022-12-23T00:30:57.148Z,98316.13
2022-12-23T00:33:26.408Z,98312.50
2022-12-23T00:35:53.364Z,98322.34
2022-12-23T00:38:39.569Z,98333.44
2022-12-23T00:41:28.897Z,98324.28
2022-12-23T00:43:55.605Z,98315.00
2022-12-23T00:46:22.222Z,98325.31
2022-12-23T00:49:07.797Z,98324.53
2022-12-23T00:51:34.472Z,98308.13
2022-12-23T00:54:01.545Z,98314.59
2022-12-23T00:56:28.388Z,98322.28
2022-12-23T00:58:55.044Z,98331.69
2022-12-23T01:01:41.042Z,98322.78
2022-12-23T01:04:27.790Z,98333.44
2022-12-23T01:06:54.755Z,98332.78
2022-12-23T01:09:21.369Z,98312.56
2022-12-23T01:11:48.089Z,98312.56
2022-12-23T01:14:14.761Z,98318.50
2022-12-23T01:16:42.023Z,98330.44
2022-12-23T01:19:08.785Z,98344.63
2022-12-23T01:21:36.085Z,98337.75
2022-12-23T01:24:02.645Z,98330.78
2022-12-23T01:26:29.300Z,98332.72
2022-12-23T01:28:57.487Z,98312.00
2022-12-23T01:31:26.247Z,98310.22
2022-12-23T01:33:53.666Z,98328.88
2022-12-23T01:36:21.220Z,98314.66
2022-12-23T01:38:48.307Z,98329.72
2022-12-23T01:41:37.162Z,98331.47
2022-12-23T01:44:24.069Z,98323.84
2022-12-23T01:46:51.110Z,98327.38
2022-12-23T01:49:17.791Z,98326.81
2022-12-23T01:51:44.451Z,98315.19
2022-12-23T01:54:11.071Z,98314.50
2022-12-23T01:56:39.872Z,98312.63
2022-12-23T01:59:10.033Z,98319.28
2022-12-23T02:01:55.755Z,98316.59
2022-12-23T02:04:25.635Z,98306.69
2022-12-23T02:07:11.052Z,98302.69
2022-12-23T02:09:40.016Z,98296.09
2022-12-23T02:12:30.686Z,98281.75
2022-12-23T02:15:42.639Z,98291.75
2022-12-23T02:18:40.972Z,98301.91
2022-12-23T02:21:23.035Z,98334.75
2022-12-23T02:24:08.639Z,98344.31
2022-12-23T02:27:02.039Z,98321.75
2022-12-23T02:30:02.735Z,98288.91
2022-12-23T02:32:41.523Z,98283.22
2022-12-23T02:35:13.498Z,98297.22
2022-12-23T02:38:11.277Z,98313.28
2022-12-23T02:40:57.184Z,98328.44
2022-12-23T02:43:32.605Z,98331.94
2022-12-23T02:46:07.201Z,98334.00
2022-12-23T02:48:44.789Z,98312.75
2022-12-23T02:51:14.548Z,98307.88
2022-12-23T02:53:56.897Z,98311.50
2022-12-23T02:56:26.095Z,98324.84
2022-12-23T02:59:05.160Z,98322.44
2022-12-23T03:01:34.723Z,98307.88
2022-12-23T03:04:01.776Z,98301.91
2022-12-23T03:06:28.341Z,98271.81
2022-12-23T03:08:58.360Z,98282.06
2022-12-23T03:12:14.179Z,98292.84
2022-12-23T03:14:59.613Z,98285.03
2022-12-23T03:17:41.793Z,98273.47
2022-12-23T03:20:21.066Z,98271.69
2022-12-23T03:22:59.548Z,98285.38
2022-12-23T03:25:34.454Z,98282.22
2022-12-23T03:28:48.972Z,98270.03
2022-12-23T03:31:23.226Z,98296.19
2022-12-23T03:33:56.519Z,98287.75
2022-12-23T03:36:29.208Z,98288.56
2022-12-23T03:38:57.022Z,98284.25
2022-12-23T03:41:41.543Z,98277.97
2022-12-23T03:44:19.076Z,98282.75
2022-12-23T03:47:03.413Z,98284.63
2022-12-23T03:49:42.866Z,98283.59
2022-12-23T03:52:21.020Z,98281.06
2022-12-23T03:55:01.835Z,98269.81
2022-12-23T03:57:37.019Z,98269.22
2022-12-23T04:00:04.477Z,98265.88
2022-12-23T04:02:43.526Z,98272.84
2022-12-23T04:05:29.885Z,98247.66
2022-12-23T04:08:19.484Z,98262.44
2022-12-23T04:10:46.938Z,98267.66
2022-12-23T04:13:13.703Z,98283.88
2022-12-23T04:15:42.015Z,98270.78
2022-12-23T04:18:10.301Z,98294.09
2022-12-23T04:20:37.628Z,98273.97
2022-12-23T04:23:04.842Z,98269.13
2022-12-23T04:25:31.638Z,98280.13
2022-12-23T04:27:58.251Z,98272.94
2022-12-23T04:30:29.705Z,98275.59
2022-12-23T04:33:00.311Z,98269.88
2022-12-23T04:35:26.914Z,98268.03
2022-12-23T04:37:53.643Z,98268.84
2022-12-23T04:40:20.243Z,98266.50
2022-12-23T04:42:46.928Z,98259.97
2022-12-23T04:45:13.646Z,98269.03
2022-12-23T04:47:40.717Z,98262.97
2022-12-23T04:50:08.445Z,98256.13
2022-12-23T04:52:35.142Z,98257.00
2022-12-23T04:55:01.747Z,98260.63
2022-12-23T04:57:28.517Z,98268.72
2022-12-23T04:59:55.101Z,98261.28
2022-12-23T05:02:21.816Z,98250.22
2022-12-23T05:04:48.498Z,98263.78
2022-12-23T05:07:15.228Z,98250.13
2022-12-23T05:09:41.817Z,98261.00
2022-12-23T05:12:08.550Z,98262.81
2022-12-23T05:14:35.435Z,98248.81
2022-12-23T05:17:07.110Z,98272.00
2022-12-23T05:19:34.598Z,98275.75
2022-12-23T05:22:01.201Z,98268.44
2022-12-23T05:24:27.871Z,98263.59
2022-12-23T05:26:59.749Z,98276.97
2022-12-23T05:29:27.600Z,98280.22
2022-12-23T05:31:54.401Z,98283.53
2022-12-23T05:34:21.502Z,98282.97
2022-12-23T05:36:48.133Z,98287.94
2022-12-23T05:39:14.788Z,98292.88
2022-12-23T05:41:41.363Z,98294.38
2022-12-23T05:44:08.012Z,98296.31
2022-12-23T05:46:34.860Z,98290.44
2022-12-23T05:49:01.676Z,98281.13
2022-12-23T05:51:28.372Z,98291.16
2022-12-23T05:53:55.148Z,98272.63
2022-12-23T05:56:21.747Z,98286.00
2022-12-23T05:58:48.330Z,98291.09
2022-12-23T06:01:14.880Z,98293.72
2022-12-23T06:03:41.775Z,98307.19
2022-12-23T06:06:08.543Z,98309.97
2022-12-23T06:08:35.186Z,98303.44
2022-12-23T06:11:05.551Z,98312.38
2022-12-23T06:13:32.281Z,98317.69
2022-12-23T06:15:59.075Z,98316.91
2022-12-23T06:18:25.839Z,98323.75
2022-12-23T06:20:52.428Z,98320.78
2022-12-23T06:23:19.056Z,98323.91
2022-12-23T06:25:45.775Z,98321.63
2022-12-23T06:28:12.680Z,98326.09
2022-12-23T06:30:39.227Z,98336.25
2022-12-23T06:33:05.872Z,98341.06
2022-12-23T06:35:32.531Z,98338.53
2022-12-23T06:37:59.189Z,98327.66
2022-12-23T06:40:25.861Z,98333.53
2022-12-23T06:42:52.542Z,98327.06
2022-12-23T06:45:19.231Z,98329.38
2022-12-23T06:47:45.931Z,98330.28
2022-12-23T06:50:12.554Z,98328.69
2022-12-23T06:52:39.455Z,98336.81
2022-12-23T06:55:06.478Z,98347.66
2022-12-23T06:57:33.208Z,98343.31
2022-12-23T06:59:59.792Z,98353.38
2022-12-23T07:02:26.558Z,98364.53
2022-12-23T07:04:53.265Z,98363.72
2022-12-23T07:07:19.961Z,98358.69
2022-12-23T07:09:46.702Z,98356.34
2022-12-23T07:12:13.456Z,98358.66
2022-12-23T07:14:40.054Z,98375.59
2022-12-23T07:17:06.961Z,98359.75
2022-12-23T07:19:34.141Z,98355.44
2022-12-23T07:22:00.813Z,98363.78
2022-12-23T07:24:27.497Z,98347.00
2022-12-23T07:26:55.828Z,98363.13
2022-12-23T07:29:22.461Z,98361.34
2022-12-23T07:31:49.495Z,98377.53
2022-12-23T07:34:16.229Z,98369.81
2022-12-23T07:36:42.881Z,98373.94
2022-12-23T07:39:09.778Z,98367.94
2022-12-23T07:41:36.509Z,98367.09
2022-12-23T07:44:07.193Z,98372.91
2022-12-23T07:46:33.920Z,98357.78
2022-12-23T07:49:00.583Z,98363.41
2022-12-23T07:51:27.236Z,98358.28
2022-12-23T07:53:53.851Z,98364.94
2022-12-23T07:56:20.848Z,98357.22
2022-12-23T07:58:51.717Z,98367.19
2022-12-23T08:01:19.219Z,98356.00
2022-12-23T08:03:46.895Z,98341.72
2022-12-23T08:06:15.236Z,98344.97
2022-12-23T08:08:44.550Z,98345.56
2022-12-23T08:11:13.021Z,98343.69
2022-12-23T08:13:41.501Z,98340.22
2022-12-23T08:16:09.764Z,98330.97
2022-12-23T08:18:39.174Z,98320.78
2022-12-23T08:21:14.628Z,98333.97
2022-12-23T08:23:42.091Z,98344.63
2022-12-23T08:26:21.448Z,98355.56
2022-12-23T08:28:49.577Z,98360.31
2022-12-23T08:31:25.640Z,98374.59
2022-12-23T08:33:55.098Z,98375.56
2022-12-23T08:36:33.257Z,98366.31
2022-12-23T08:39:03.462Z,98386.41
2022-12-23T08:41:33.444Z,98382.94
2022-12-23T08:44:00.337Z,98378.66
2022-12-23T08:46:27.219Z,98372.41
2022-12-23T08:48:55.062Z,98370.69
2022-12-23T08:51:23.588Z,98363.28
2022-12-23T08:53:56.256Z,98341.47
2022-12-23T08:56:32.913Z,98366.78
2022-12-23T08:59:00.603Z,98371.78
2022-12-23T09:01:29.905Z,98371.59
2022-12-23T09:03:56.855Z,98356.88
2022-12-23T09:06:30.390Z,98350.06
2022-12-23T09:08:58.160Z,98336.47
2022-12-23T09:11:27.078Z,98342.16
2022-12-23T09:13:54.753Z,98353.13
2022-12-23T09:16:21.953Z,98354.84
2022-12-23T09:18:48.820Z,98344.59
2022-12-23T09:21:19.547Z,98341.13
2022-12-23T09:23:47.108Z,98352.91
2022-12-23T09:26:22.854Z,98362.50
2022-12-23T09:28:49.944Z,98359.16
2022-12-23T09:31:17.103Z,98357.41
2022-12-23T09:33:47.940Z,98358.91
2022-12-23T09:36:14.998Z,98350.44
2022-12-23T09:38:41.743Z,98364.56
2022-12-23T09:41:29.950Z,98360.22
2022-12-23T09:44:14.628Z,98375.44
2022-12-23T09:47:05.707Z,98355.88
2022-12-23T09:49:33.715Z,98349.81
2022-12-23T09:52:05.697Z,98343.66
2022-12-23T09:54:45.993Z,98337.25
2022-12-23T09:57:58.678Z,98348.22
2022-12-23T10:00:26.700Z,98331.63
2022-12-23T10:03:28.342Z,98340.41
2022-12-23T10:06:10.354Z,98325.38
2022-12-23T10:08:42.200Z,98311.16
2022-12-23T10:11:41.389Z,98314.19
2022-12-23T10:14:20.491Z,98299.03
2022-12-23T10:16:52.768Z,98307.25
2022-12-23T10:19:29.884Z,98293.56
2022-12-23T10:22:07.269Z,98293.31
2022-12-23T10:24:40.840Z,98283.16
2022-12-23T10:27:37.108Z,98293.88
2022-12-23T10:30:34.357Z,98302.75
2022-12-23T10:33:17.151Z,98295.31
2022-12-23T10:35:53.359Z,98297.44
2022-12-23T10:38:41.656Z,98279.94
2022-12-23T10:41:39.221Z,98282.78
2022-12-23T10:44:30.106Z,98279.41
2022-12-23T10:47:33.231Z,98250.63
2022-12-23T10:50:09.858Z,98247.38
2022-12-23T10:52:40.049Z,98265.03
2022-12-23T10:55:15.364Z,98278.22
2022-12-23T10:57:42.075Z,98276.88
2022-12-23T11:00:22.341Z,98283.19
2022-12-23T11:03:04.300Z,98290.66
2022-12-23T11:05:33.361Z,98281.88
2022-12-23T11:08:01.155Z,98268.47
2022-12-23T11:10:33.055Z,98263.09
2022-12-23T11:13:00.660Z,98256.72
2022-12-23T11:15:40.440Z,98256.94
2022-12-23T11:18:14.091Z,98256.41
2022-12-23T11:20:45.088Z,98246.41
2022-12-23T11:23:33.038Z,98243.13
2022-12-23T11:26:09.860Z,98220.97
2022-12-23T11:28:40.698Z,98220.88
2022-12-23T11:31:11.806Z,98197.59
2022-12-23T11:33:52.041Z,98189.69
2022-12-23T11:36:24.607Z,98181.59
2022-12-23T11:39:33.302Z,98174.13
2022-12-23T11:42:11.738Z,98171.50
2022-12-23T11:44:43.191Z,98179.63
2022-12-23T11:47:22.020Z,98150.75
2022-12-23T11:49:54.253Z,98143.00
2022-12-23T11:52:29.979Z,98143.94
2022-12-23T11:54:59.454Z,98146.94
2022-12-23T11:57:43.033Z,98141.19
2022-12-23T12:00:21.025Z,98149.66
2022-12-23T12:02:52.689Z,98147.28
2022-12-23T12:05:23.095Z,98154.63
2022-12-23T12:07:51.847Z,98152.28
2022-12-23T12:10:25.255Z,98142.63
2022-12-23T12:12:56.913Z,98152.84
2022-12-23T12:15:53.423Z,98153.03
2022-12-23T12:18:21.177Z,98157.59
2022-12-23T12:20:53.809Z,98161.94
2022-12-23T12:23:37.712Z,98155.59
2022-12-23T12:26:24.431Z,98154.38
2022-12-23T12:28:59.317Z,98156.00
2022-12-23T12:31:34.068Z,98163.69
2022-12-23T12:34:14.595Z,98157.59
2022-12-23T12:36:50.763Z,98162.31
2022-12-23T12:39:22.761Z,98167.44
2022-12-23T12:42:00.189Z,98173.88
2022-12-23T12:44:47.472Z,98167.72
2022-12-23T12:47:53.929Z,98179.25
2022-12-23T12:50:27.933Z,98185.56
2022-12-23T12:52:59.618Z,98183.16
2022-12-23T12:55:30.677Z,98182.72
2022-12-23T12:57:57.675Z,98187.88
2022-12-23T13:00:25.302Z,98196.47
2022-12-23T13:03:12.134Z,98196.28
2022-12-23T13:05:54.654Z,98193.81
2022-12-23T13:08:46.235Z,98188.84
2022-12-23T13:11:28.593Z,98173.00
2022-12-23T13:14:40.181Z,98183.59
2022-12-23T13:17:24.443Z,98170.88
2022-12-23T13:20:09.657Z,98159.31
2022-12-23T13:22:38.579Z,98166.72
2022-12-23T13:25:11.256Z,98160.69
2022-12-23T13:27:58.009Z,98161.25
2022-12-23T13:30:32.076Z,98163.09
2022-12-23T13:33:17.477Z,98154.09
2022-12-23T13:36:06.569Z,98157.81
2022-12-23T13:39:05.490Z,98140.47
2022-12-23T13:41:48.925Z,98149.50
2022-12-23T13:44:18.758Z,98147.75
2022-12-23T13:47:00.561Z,98139.63
2022-12-23T13:49:56.358Z,98119.81
2022-12-23T13:52:44.297Z,98132.13
2022-12-23T13:55:13.716Z,98129.66
2022-12-23T13:58:09.608Z,98122.94
2022-12-23T14:00:36.468Z,98131.72
2022-12-23T14:03:03.398Z,98141.31
2022-12-23T14:05:33.222Z,98157.66
2022-12-23T14:08:02.513Z,98149.91
2022-12-23T14:10:30.777Z,98155.69
2022-12-23T14:13:07.458Z,98153.28
2022-12-23T14:16:12.673Z,98141.50
2022-12-23T14:19:10.423Z,98140.09
2022-12-23T14:21:58.309Z,98139.06
2022-12-23T14:25:02.818Z,98137.03
2022-12-23T14:27:35.295Z,98128.19
2022-12-23T14:30:32.969Z,98126.28
2022-12-23T14:33:18.033Z,98131.56
2022-12-23T14:35:44.701Z,98142.78
2022-12-23T14:38:14.162Z,98151.16
2022-12-23T14:40:43.807Z,98148.81
2022-12-23T14:43:22.609Z,98146.13
2022-12-23T14:45:51.567Z,98147.44
2022-12-23T14:48:33.428Z,98152.47
2022-12-23T14:51:09.527Z,98132.06
2022-12-23T14:53:58.011Z,98130.41
2022-12-23T14:56:40.350Z,98133.38
2022-12-23T14:59:16.936Z,98130.53
2022-12-23T15:02:02.794Z,98120.13
2022-12-23T15:04:50.951Z,98140.75
2022-12-23T15:07:34.398Z,98117.91
2022-12-23T15:10:08.688Z,98130.53
2022-12-23T15:12:42.126Z,98129.63
2022-12-23T15:15:25.136Z,98136.53
2022-12-23T15:18:12.313Z,98139.94
2022-12-23T15:20:39.561Z,98144.09
2022-12-23T15:23:12.080Z,98137.75
2022-12-23T15:25:43.698Z,98144.19
2022-12-23T15:28:18.356Z,98162.25
2022-12-23T15:30:56.747Z,98162.03
2022-12-23T15:34:01.332Z,98176.59
2022-12-23T15:36:14.976Z,98183.09
2022-12-23T15:38:42.056Z,98189.94
2022-12-23T15:41:17.072Z,98180.72
2022-12-23T15:43:44.872Z,98198.56
2022-12-23T15:46:23.410Z,98198.03
2022-12-23T15:48:54.174Z,98194.84
2022-12-23T15:52:06.246Z,98207.09
2022-12-23T15:54:34.935Z,98197.72
2022-12-23T15:57:03.402Z,98194.31
2022-12-23T15:59:39.577Z,98177.03
2022-12-23T16:02:58.479Z,98182.88
2022-12-23T16:05:05.539Z,98176.97
2022-12-23T16:07:35.757Z,98164.69
2022-12-23T16:10:11.693Z,98166.34
2022-12-23T16:12:40.091Z,98173.13
2022-12-23T16:15:32.393Z,98177.03
2022-12-23T16:18:34.047Z,98165.38
2022-12-23T16:21:04.041Z,98159.56
2022-12-23T16:23:35.130Z,98162.72
2022-12-23T16:26:02.952Z,98170.97
2022-12-23T16:28:42.762Z,98171.19
2022-12-23T16:31:10.753Z,98172.88
2022-12-23T16:33:42.481Z,98179.59
2022-12-23T16:36:27.351Z,98181.28
2022-12-23T16:39:23.921Z,98184.31
2022-12-23T16:41:50.896Z,98175.28
2022-12-23T16:44:17.549Z,98177.09
2022-12-23T16:46:48.571Z,98164.72
2022-12-23T16:49:20.687Z,98164.06
2022-12-23T16:51:47.699Z,98169.84
2022-12-23T16:54:17.698Z,98173.56
2022-12-23T16:56:46.831Z,98167.34
2022-12-23T16:59:14.146Z,98170.19
2022-12-23T17:01:44.765Z,98175.94
2022-12-23T17:04:12.435Z,98177.03
2022-12-23T17:06:40.733Z,98188.88
2022-12-23T17:09:10.172Z,98215.22
2022-12-23T17:11:49.489Z,98211.44
2022-12-23T17:14:16.167Z,98220.06
2022-12-23T17:16:43.898Z,98239.75
2022-12-23T17:19:11.474Z,98243.47
2022-12-23T17:21:39.769Z,98240.28
2022-12-23T17:24:12.481Z,98257.31
2022-12-23T17:26:39.974Z,98249.72
2022-12-23T17:29:06.900Z,98261.28
2022-12-23T17:31:34.654Z,98264.84
2022-12-23T17:34:02.217Z,98271.66
2022-12-23T17:36:29.454Z,98263.25
2022-12-23T17:38:56.128Z,98253.06
2022-12-23T17:41:31.414Z,98265.63
2022-12-23T17:43:58.833Z,98279.28
2022-12-23T17:46:26.883Z,98265.03
2022-12-23T17:48:54.068Z,98269.63
2022-12-23T17:51:22.639Z,98265.22
2022-12-23T17:53:56.840Z,98271.44
2022-12-23T17:56:25.106Z,98243.72
2022-12-23T17:58:52.150Z,98235.91
2022-12-23T18:01:26.482Z,98224.50
2022-12-23T18:03:56.460Z,98214.91
2022-12-23T18:06:24.760Z,98220.25
2022-12-23T18:08:51.796Z,98216.91
2022-12-23T18:11:22.648Z,98227.13
2022-12-23T18:13:52.156Z,98216.41
2022-12-23T18:16:18.915Z,98210.41
2022-12-23T18:18:46.864Z,98194.19
2022-12-23T18:21:20.344Z,98212.25
2022-12-23T18:23:47.287Z,98215.22
2022-12-23T18:26:17.494Z,98212.41
2022-12-23T18:28:44.664Z,98229.88
2022-12-23T18:31:20.996Z,98250.09
2022-12-23T18:33:48.128Z,98269.16
2022-12-23T18:36:29.149Z,98276.41
2022-12-23T18:38:57.245Z,98278.19
2022-12-23T18:41:25.344Z,98270.41
2022-12-23T18:43:52.795Z,98276.78
2022-12-23T18:46:22.975Z,98266.69
2022-12-23T18:48:49.842Z,98270.84
2022-12-23T18:51:18.023Z,98268.69
2022-12-23T18:53:45.766Z,98262.56
2022-12-23T18:56:19.144Z,98265.63
2022-12-23T18:58:45.992Z,98261.53
2022-12-23T19:01:14.113Z,98250.91
2022-12-23T19:03:41.999Z,98251.91
2022-12-23T19:06:11.867Z,98248.63
2022-12-23T19:08:39.499Z,98245.47
2022-12-23T19:11:18.042Z,98222.94
2022-12-23T19:13:45.231Z,98207.81
2022-12-23T19:16:17.272Z,98208.00
2022-12-23T19:18:46.021Z,98203.56
2022-12-23T19:21:12.870Z,98215.41
2022-12-23T19:23:41.117Z,98255.22
2022-12-23T19:26:13.379Z,98257.22
2022-12-23T19:28:41.648Z,98256.94
2022-12-23T19:31:09.208Z,98259.38
2022-12-23T19:33:40.440Z,98274.63
2022-12-23T19:36:11.544Z,98263.00
2022-12-23T19:38:39.164Z,98253.72
2022-12-23T19:41:07.442Z,98270.84
2022-12-23T19:43:34.962Z,98280.28
2022-12-23T19:46:04.643Z,98288.88
2022-12-23T19:48:31.346Z,98284.47
2022-12-23T19:50:58.983Z,98294.94
2022-12-23T19:53:26.542Z,98299.34
2022-12-23T19:56:02.412Z,98306.78
2022-12-23T19:58:33.306Z,98312.22
2022-12-23T20:01:11.973Z,98334.44
2022-12-23T20:03:39.668Z,98321.13
2022-12-23T20:06:08.143Z,98339.78
2022-12-23T20:08:35.213Z,98329.13
2022-12-23T20:11:04.153Z,98326.91
2022-12-23T20:13:30.938Z,98320.31
2022-12-23T20:15:57.933Z,98323.69
2022-12-23T20:18:24.750Z,98327.22
2022-12-23T20:20:51.593Z,98328.84
2022-12-23T20:23:18.275Z,98323.88
2022-12-23T20:25:45.397Z,98333.00
2022-12-23T20:28:12.293Z,98332.28
2022-12-23T20:30:39.038Z,98334.59
2022-12-23T20:33:05.923Z,98347.22
2022-12-23T20:35:32.530Z,98349.03
2022-12-23T20:37:59.288Z,98352.53
2022-12-23T20:40:25.911Z,98338.69
2022-12-23T20:42:52.703Z,98341.91
2022-12-23T20:45:20.928Z,98328.72
2022-12-23T20:47:47.771Z,98366.13
2022-12-23T20:50:14.724Z,98391.94
2022-12-23T20:52:41.431Z,98393.66
2022-12-23T20:55:08.495Z,98394.53
2022-12-23T20:57:35.969Z,98375.41
2022-12-23T21:00:05.469Z,98385.75
2022-12-23T21:02:32.295Z,98370.53
2022-12-23T21:04:58.866Z,98377.75
2022-12-23T21:07:26.356Z,98362.00
2022-12-23T21:09:52.926Z,98351.03
2022-12-23T21:12:19.681Z,98342.56
2022-12-23T21:14:46.397Z,98356.25
2022-12-23T21:17:13.175Z,98336.19
2022-12-23T21:19:39.783Z,98324.22
2022-12-23T21:22:06.513Z,98315.13
2022-12-23T21:24:33.118Z,98316.69
2022-12-23T21:26:59.798Z,98309.63
2022-12-23T21:29:26.736Z,98304.78
2022-12-23T21:31:53.655Z,98293.16
2022-12-23T21:34:20.590Z,98297.31
2022-12-23T21:36:47.445Z,98290.38
2022-12-23T21:39:16.133Z,98292.91
2022-12-23T21:41:43.312Z,98293.72
2022-12-23T21:44:11.705Z,98279.94
2022-12-23T21:46:38.440Z,98263.31
2022-12-23T21:49:05.222Z,98273.72
2022-12-23T21:51:39.695Z,98258.69
2022-12-23T21:54:07.720Z,98252.13
2022-12-23T21:56:34.538Z,98250.00
2022-12-23T21:59:03.513Z,98264.91
2022-12-23T22:01:31.353Z,98269.25
2022-12-23T22:03:58.542Z,98268.41
2022-12-23T22:06:32.003Z,98263.16
2022-12-23T22:08:59.878Z,98260.81
2022-12-23T22:11:29.616Z,98248.31
2022-12-23T22:13:58.199Z,98216.41
2022-12-23T22:16:26.870Z,98253.81
2022-12-23T22:18:55.202Z,98236.59
2022-12-23T22:21:24.703Z,98262.31
2022-12-23T22:23:52.754Z,98236.72
2022-12-23T22:26:25.363Z,98228.72
2022-12-23T22:28:59.095Z,98239.78
2022-12-23T22:31:47.599Z,98207.88
2022-12-23T22:34:17.395Z,98230.72
2022-12-23T22:36:44.844Z,98230.25
2022-12-23T22:39:19.968Z,98218.06
2022-12-23T22:41:48.844Z,98226.31
2022-12-23T22:44:16.288Z,98220.47
2022-12-23T22:46:43.369Z,98214.97
2022-12-23T22:49:13.961Z,98236.53
2022-12-23T22:51:42.571Z,98262.03
2022-12-23T22:54:10.063Z,98272.16
2022-12-23T22:56:37.570Z,98279.16
2022-12-23T22:59:04.789Z,98282.38
2022-12-23T23:01:34.087Z,98267.38
2022-12-23T23:04:03.000Z,98295.13
2022-12-23T23:06:37.813Z,98267.94
2022-12-23T23:09:11.608Z,98260.63
2022-12-23T23:11:38.644Z,98258.31
2022-12-23T23:14:05.523Z,98254.25
2022-12-23T23:16:33.333Z,98256.22
2022-12-23T23:19:00.328Z,98269.03
2022-12-23T23:21:27.287Z,98261.31
2022-12-23T23:23:54.016Z,98239.41
2022-12-23T23:26:21.160Z,98252.28
2022-12-23T23:28:48.341Z,98242.69
2022-12-23T23:34:02.031Z,98228.53
2022-12-23T23:36:28.741Z,98254.41
2022-12-23T23:38:55.683Z,98262.19
2022-12-23T23:41:23.556Z,98241.72
2022-12-23T23:43:51.600Z,98213.59
2022-12-23T23:46:18.364Z,98204.47
2022-12-23T23:48:45.172Z,98200.25
2022-12-23T23:51:12.728Z,98185.97
2022-12-23T23:53:40.201Z,98235.53
2022-12-23T23:56:07.865Z,98258.47
2022-12-23T23:58:36.241Z,98259.47
